Time;durP1;ratioP1;P1;durP2;ratioP2;P2;SDS_P1;SDS_P2;PMS_P1;PMS_P2;Temp;Humidity;BMP_temperature;BMP_pressure;BME280_temperature;BME280_humidity;BME280_pressure;Samples;Min_cycle;Max_cycle;Signal;HPM_P1;HPM_P2
2021/12/24 00:01:12;;;;;;;1999.90;999.90;;;;;;;-0.67;61.79;99623.59;5038197;27;98882;-68
2021/12/24 00:03:41;;;;;;;1999.90;999.90;;;;;;;-0.71;62.23;99619.94;5038052;27;97921;-69
2021/12/24 00:06:10;;;;;;;1999.90;999.90;;;;;;;-0.72;62.41;99618.13;5040169;27;97138;-69
2021/12/24 00:08:39;;;;;;;1999.90;999.90;;;;;;;-0.74;62.71;99617.19;5038418;27;97697;-69
2021/12/24 00:11:07;;;;;;;1999.90;999.90;;;;;;;-0.70;63.00;99626.94;5037644;27;98032;-68
2021/12/24 00:13:39;;;;;;;1999.90;999.90;;;;;;;-0.69;63.26;99610.47;5035725;27;97402;-69
2021/12/24 00:16:16;;;;;;;1999.90;999.90;;;;;;;-0.64;62.92;99627.25;5021569;27;97266;-69
2021/12/24 00:18:49;;;;;;;1999.90;999.90;;;;;;;-0.59;63.07;99598.75;5037258;27;98805;-68
2021/12/24 00:35:17;;;;;;;1999.90;999.90;;;;;;;-0.36;64.44;99580.69;5037380;27;96952;-69
2021/12/24 00:37:46;;;;;;;1999.90;999.90;;;;;;;-0.03;63.39;99591.72;5038326;27;97429;-69
2021/12/24 00:40:18;;;;;;;1999.90;999.90;;;;;;;-0.14;64.25;99587.75;5040772;27;97122;-69
2021/12/24 00:42:51;;;;;;;1999.90;999.90;;;;;;;-0.12;64.08;99586.09;5022737;27;97653;-68
2021/12/24 00:45:22;;;;;;;1999.90;999.90;;;;;;;-0.07;63.52;99575.03;5040477;27;96925;-69
2021/12/24 00:47:51;;;;;;;1999.90;999.90;;;;;;;0.24;62.62;99561.56;5041132;27;96924;-68
2021/12/24 00:50:25;;;;;;;1999.90;999.90;;;;;;;0.11;64.08;99562.75;5020766;27;97735;-69
2021/12/24 00:52:58;;;;;;;1999.90;999.90;;;;;;;0.40;63.13;99563.09;5041459;27;98463;-69
2021/12/24 00:55:27;;;;;;;1999.90;999.90;;;;;;;0.56;63.92;99560.31;5038492;27;96874;-69
2021/12/24 00:57:58;;;;;;;1999.90;999.90;;;;;;;0.66;63.57;99560.75;5051548;27;97051;-69
2021/12/24 01:00:29;;;;;;;1999.90;999.90;;;;;;;0.41;65.40;99562.28;5037637;27;97734;-70
2021/12/24 01:02:59;;;;;;;1999.90;999.90;;;;;;;0.34;65.63;99555.00;5020840;27;98681;-68
2021/12/24 01:05:31;;;;;;;1999.90;999.90;;;;;;;0.33;65.14;99555.81;5036735;27;96978;-70
2021/12/24 01:08:00;;;;;;;1999.90;999.90;;;;;;;0.30;65.16;99559.22;5042408;27;96951;-70
2021/12/24 01:10:30;;;;;;;1999.90;999.90;;;;;;;0.28;65.52;99562.59;5037723;27;99140;-69
2021/12/24 01:12:57;;;;;;;1999.90;999.90;;;;;;;0.28;65.01;99558.25;5023773;27;100988;-70
2021/12/24 01:15:27;;;;;;;1999.90;999.90;;;;;;;0.25;65.31;99562.47;5008107;28;96771;-70
2021/12/24 01:18:02;;;;;;;1999.90;999.90;;;;;;;0.20;65.96;99544.81;5005672;27;96972;-69
2021/12/24 01:20:40;;;;;;;1999.90;999.90;;;;;;;0.54;63.81;99541.91;5023611;27;98903;-70
2021/12/24 01:23:31;;;;;;;1999.90;999.90;;;;;;;0.38;64.88;99542.09;5022211;27;98837;-69
2021/12/24 01:26:02;;;;;;;1999.90;999.90;;;;;;;0.38;65.22;99529.03;5005536;28;96822;-70
2021/12/24 01:40:06;;;;;;;1999.90;999.90;;;;;;;0.28;65.63;99534.72;4943361;28;97424;-70
2021/12/24 01:42:41;;;;;;;1999.90;999.90;;;;;;;0.23;65.96;99537.09;5005571;27;97942;-70
2021/12/24 01:45:22;;;;;;;1999.90;999.90;;;;;;;0.28;65.30;99528.59;5002687;28;97726;-70
2021/12/24 01:47:52;;;;;;;1999.90;999.90;;;;;;;0.25;65.84;99542.41;5004163;27;97830;-70
2021/12/24 01:50:21;;;;;;;1999.90;999.90;;;;;;;0.23;65.59;99555.41;5003217;27;98601;-70
2021/12/24 01:52:53;;;;;;;1999.90;999.90;;;;;;;0.25;65.43;99521.50;5008567;28;99251;-70
2021/12/24 01:55:23;;;;;;;1999.90;999.90;;;;;;;0.28;65.12;99529.50;5019965;27;98086;-69
2021/12/24 01:57:51;;;;;;;1999.90;999.90;;;;;;;0.32;65.06;99522.66;5008706;28;100115;-69
2021/12/24 02:00:21;;;;;;;1999.90;999.90;;;;;;;0.27;65.47;99524.16;5022717;27;97859;-69
2021/12/24 02:02:49;;;;;;;1999.90;999.90;;;;;;;0.27;65.94;99525.06;5006277;28;100611;-69
2021/12/24 02:05:18;;;;;;;1999.90;999.90;;;;;;;0.30;64.80;99520.00;5020948;27;97532;-70
2021/12/24 02:07:46;;;;;;;1999.90;999.90;;;;;;;0.29;65.35;99532.97;5022959;27;96705;-69
2021/12/24 02:10:17;;;;;;;1999.90;999.90;;;;;;;0.29;65.49;99526.03;5018361;27;97570;-70
2021/12/24 02:12:45;;;;;;;1999.90;999.90;;;;;;;0.60;63.92;99517.72;5022782;27;97157;-69
2021/12/24 02:15:22;;;;;;;1999.90;999.90;;;;;;;0.43;65.58;99506.56;5001716;28;99193;-70
2021/12/24 02:18:17;;;;;;;1999.90;999.90;;;;;;;0.42;65.83;99509.09;5004836;28;96776;-69
2021/12/24 02:29:02;;;;;;;1999.90;999.90;;;;;;;0.41;66.00;99508.22;4989351;27;98125;-69
2021/12/24 02:31:30;;;;;;;1999.90;999.90;;;;;;;0.42;65.48;99515.25;5023162;27;96847;-70
2021/12/24 02:33:57;;;;;;;1999.90;999.90;;;;;;;0.42;65.84;99509.09;5023523;27;97332;-69
2021/12/24 02:36:28;;;;;;;1999.90;999.90;;;;;;;0.43;65.35;99508.31;5005353;27;99365;-69
2021/12/24 02:38:56;;;;;;;1999.90;999.90;;;;;;;0.44;65.39;99510.97;5022730;27;98173;-69
2021/12/24 02:41:24;;;;;;;1999.90;999.90;;;;;;;0.46;65.73;99503.19;5020473;27;97245;-69
2021/12/24 02:43:52;;;;;;;1999.90;999.90;;;;;;;0.46;65.28;99505.78;5018593;27;97931;-69
2021/12/24 02:46:29;;;;;;;1999.90;999.90;;;;;;;0.46;65.47;99508.41;5006128;27;100990;-69
2021/12/24 02:49:04;;;;;;;1999.90;999.90;;;;;;;0.47;65.68;99505.84;5022914;27;97135;-69
2021/12/24 02:54:20;;;;;;;1999.90;999.90;;;;;;;0.43;66.19;99513.53;5021122;27;99391;-69
2021/12/24 02:56:52;;;;;;;1999.90;999.90;;;;;;;0.68;64.72;99505.84;5007175;27;99427;-69
2021/12/24 02:59:25;;;;;;;1999.90;999.90;;;;;;;0.41;67.37;99508.22;5025368;27;97077;-69
2021/12/24 03:01:55;;;;;;;1999.90;999.90;;;;;;;0.41;67.33;99502.09;5006435;27;98703;-69
2021/12/24 03:04:23;;;;;;;1999.90;999.90;;;;;;;0.40;67.28;99506.44;5018988;27;100547;-69
2021/12/24 03:06:53;;;;;;;1999.90;999.90;;;;;;;0.44;66.43;99497.88;5022236;27;99171;-69
2021/12/24 03:09:22;;;;;;;1999.90;999.90;;;;;;;0.74;64.74;99498.22;5001191;28;97234;-69
2021/12/24 03:11:52;;;;;;;1999.90;999.90;;;;;;;0.57;66.48;99494.03;5022871;27;96898;-69
2021/12/24 03:14:21;;;;;;;1999.90;999.90;;;;;;;0.83;65.50;99493.34;5022236;27;98583;-69
2021/12/24 03:16:56;;;;;;;1999.90;999.90;;;;;;;0.63;66.39;99499.53;5023038;27;98603;-69
2021/12/24 03:19:28;;;;;;;1999.90;999.90;;;;;;;0.57;67.33;99484.47;5004714;28;96902;-69
2021/12/24 03:22:05;;;;;;;1999.90;999.90;;;;;;;0.56;67.03;99492.28;5020749;27;97152;-69
2021/12/24 03:24:35;;;;;;;1999.90;999.90;;;;;;;0.54;67.27;99493.94;5022362;27;99008;-69
2021/12/24 03:27:06;;;;;;;1999.90;999.90;;;;;;;0.84;65.61;99479.41;5019828;27;97165;-69
2021/12/24 03:29:34;;;;;;;1999.90;999.90;;;;;;;0.66;66.80;99491.78;5002306;28;97115;-69
2021/12/24 03:32:03;;;;;;;1999.90;999.90;;;;;;;0.59;67.26;99472.34;5017477;27;98014;-69
2021/12/24 03:34:31;;;;;;;1999.90;999.90;;;;;;;0.62;67.01;99487.25;5024422;27;96961;-69
2021/12/24 03:37:00;;;;;;;1999.90;999.90;;;;;;;0.60;67.09;99473.22;5010036;28;99468;-69
2021/12/24 03:39:30;;;;;;;1999.90;999.90;;;;;;;0.57;67.65;99467.88;5005814;27;97863;-69
2021/12/24 03:41:58;;;;;;;1999.90;999.90;;;;;;;0.88;65.38;99478.72;5023833;27;97645;-69
2021/12/24 03:44:32;;;;;;;1999.90;999.90;;;;;;;0.69;67.74;99463.09;5006993;27;98016;-70
2021/12/24 03:47:06;;;;;;;1999.90;999.90;;;;;;;0.64;67.76;99465.56;5024777;27;98243;-70
2021/12/24 03:49:38;;;;;;;1999.90;999.90;;;;;;;0.63;68.14;99470.75;5024781;27;97090;-69
2021/12/24 03:52:33;;;;;;;1999.90;999.90;;;;;;;0.93;66.60;99466.69;5021702;27;98074;-69
2021/12/24 03:55:01;;;;;;;1999.90;999.90;;;;;;;0.73;67.91;99460.69;5009230;27;99180;-69
2021/12/24 03:57:36;;;;;;;1999.90;999.90;;;;;;;0.69;67.90;99452.63;5022329;27;97773;-69
2021/12/24 04:00:25;;;;;;;1999.90;999.90;;;;;;;1.03;66.20;99474.06;5018679;27;96968;-69
2021/12/24 04:03:13;;;;;;;1999.90;999.90;;;;;;;1.20;66.35;99449.38;5022737;27;97298;-70
2021/12/24 04:05:44;;;;;;;1999.90;999.90;;;;;;;0.96;68.08;99458.94;5026686;27;98171;-69
2021/12/24 04:08:32;;;;;;;1999.90;999.90;;;;;;;1.26;66.81;99457.47;5021896;27;99117;-70
2021/12/24 04:11:12;;;;;;;1999.90;999.90;;;;;;;1.44;66.01;99455.53;5021705;27;97083;-69
2021/12/24 04:13:41;;;;;;;1999.90;999.90;;;;;;;1.54;65.97;99441.91;5009665;27;96758;-70
2021/12/24 04:16:09;;;;;;;1999.90;999.90;;;;;;;1.25;67.54;99441.69;5024473;27;100641;-69
2021/12/24 04:18:53;;;;;;;1999.90;999.90;;;;;;;1.16;67.14;99437.91;5009703;27;100407;-69
2021/12/24 04:26:53;;;;;;;1999.90;999.90;;;;;;;1.00;67.73;99430.31;5002985;28;100492;-70
2021/12/24 04:29:23;;;;;;;1999.90;999.90;;;;;;;0.98;67.76;99428.47;5022010;27;100094;-70
2021/12/24 04:31:57;;;;;;;1999.90;999.90;;;;;;;0.95;68.43;99449.31;5024687;27;96809;-70
2021/12/24 04:34:48;;;;;;;1999.90;999.90;;;;;;;0.95;67.42;99439.72;5024315;27;96788;-70
2021/12/24 04:38:05;;;;;;;1999.90;999.90;;;;;;;0.96;67.41;99440.59;5009227;28;100997;-70
2021/12/24 04:51:45;;;;;;;1999.90;999.90;;;;;;;0.99;67.79;99427.66;5026429;27;97591;-70
2021/12/24 05:02:52;;;;;;;1999.90;999.90;;;;;;;1.14;67.63;99433.47;5022894;27;100488;-69
2021/12/24 05:05:23;;;;;;;1999.90;999.90;;;;;;;1.09;68.79;99433.28;5004104;27;97218;-70
2021/12/24 05:08:20;;;;;;;1999.90;999.90;;;;;;;1.09;67.79;99429.75;5024715;27;96917;-69
2021/12/24 05:10:51;;;;;;;1999.90;999.90;;;;;;;1.07;67.55;99426.19;5020183;27;96951;-71
2021/12/24 05:13:22;;;;;;;1999.90;999.90;;;;;;;1.06;67.72;99430.56;5004363;27;97926;-69
2021/12/24 05:16:22;;;;;;;1999.90;999.90;;;;;;;1.02;68.41;99430.38;5002726;27;96645;-69
2021/12/24 05:22:20;;;;;;;1999.90;999.90;;;;;;;1.00;67.50;99434.66;5021473;27;97699;-69
2021/12/24 05:24:48;;;;;;;1999.90;999.90;;;;;;;0.99;68.24;99422.41;5025195;27;98630;-69
2021/12/24 05:27:17;;;;;;;1999.90;999.90;;;;;;;0.99;68.30;99423.31;5008091;27;97218;-69
2021/12/24 05:29:46;;;;;;;1999.90;999.90;;;;;;;1.01;68.35;99424.22;5005986;28;99010;-69
2021/12/24 05:32:14;;;;;;;1999.90;999.90;;;;;;;1.00;68.26;99427.69;4997928;27;99555;-69
2021/12/24 05:34:42;;;;;;;1999.90;999.90;;;;;;;1.00;68.07;99414.59;5020841;27;100488;-69
2021/12/24 05:37:10;;;;;;;1999.90;999.90;;;;;;;1.02;67.66;99422.50;5024564;27;96855;-69
2021/12/24 05:39:38;;;;;;;1999.90;999.90;;;;;;;1.00;67.70;99409.34;5022475;27;98003;-69
2021/12/24 05:42:07;;;;;;;1999.90;999.90;;;;;;;1.02;67.84;99412.94;5006123;28;98385;-69
2021/12/24 05:44:34;;;;;;;1999.90;999.90;;;;;;;1.03;67.65;99409.47;5019745;27;99276;-69
2021/12/24 05:47:13;;;;;;;1999.90;999.90;;;;;;;1.05;67.48;99406.94;5007769;27;96856;-69
2021/12/24 05:49:44;;;;;;;1999.90;999.90;;;;;;;1.34;66.20;99410.59;5007597;27;96842;-69
2021/12/24 05:52:31;;;;;;;1999.90;999.90;;;;;;;1.17;67.67;99413.50;5024067;27;99545;-69
2021/12/24 05:55:05;;;;;;;1999.90;999.90;;;;;;;1.17;68.35;99408.25;5006473;27;98962;-69
2021/12/24 05:57:34;;;;;;;1999.90;999.90;;;;;;;1.21;68.02;99409.25;5018064;27;96902;-69
2021/12/24 06:00:05;;;;;;;1999.90;999.90;;;;;;;1.23;67.36;99408.47;5015562;27;97735;-70
2021/12/24 06:02:41;;;;;;;1999.90;999.90;;;;;;;1.24;67.86;99409.38;5010450;27;97456;-70
2021/12/24 06:05:09;;;;;;;1999.90;999.90;;;;;;;1.26;67.15;99415.56;5004190;28;99722;-70
2021/12/24 06:07:37;;;;;;;1999.90;999.90;;;;;;;1.27;67.16;99414.69;5024367;27;96792;-70
2021/12/24 06:10:05;;;;;;;1999.90;999.90;;;;;;;1.28;67.45;99400.78;5021344;27;97344;-77
2021/12/24 06:12:33;;;;;;;1999.90;999.90;;;;;;;1.29;67.54;99406.94;5026087;27;98642;-68
2021/12/24 06:15:05;;;;;;;1999.90;999.90;;;;;;;1.29;67.44;99410.41;5017508;27;98548;-70
2021/12/24 06:17:33;;;;;;;1999.90;999.90;;;;;;;1.30;66.92;99409.59;5017457;27;97256;-69
2021/12/24 06:20:03;;;;;;;1999.90;999.90;;;;;;;1.33;67.34;99408.78;5020865;27;97754;-68
2021/12/24 06:22:31;;;;;;;1999.90;999.90;;;;;;;1.34;67.24;99410.59;5021007;27;97172;-69
2021/12/24 06:24:59;;;;;;;1999.90;999.90;;;;;;;1.37;67.08;99411.59;5019103;27;98223;-69
2021/12/24 06:27:27;;;;;;;1999.90;999.90;;;;;;;1.39;67.28;99409.00;5023228;27;97197;-69
2021/12/24 06:29:54;;;;;;;1999.90;999.90;;;;;;;1.38;67.18;99408.13;5020779;27;97156;-69
2021/12/24 06:32:26;;;;;;;1999.90;999.90;;;;;;;1.39;67.44;99415.16;5022849;27;99188;-68
2021/12/24 06:34:54;;;;;;;1999.90;999.90;;;;;;;1.42;66.47;99402.16;5023259;27;100558;-69
2021/12/24 06:37:23;;;;;;;1999.90;999.90;;;;;;;1.43;66.38;99406.56;5026393;27;97205;-69
2021/12/24 06:39:50;;;;;;;1999.90;999.90;;;;;;;1.43;66.51;99403.06;5016008;27;98543;-69
2021/12/24 06:42:18;;;;;;;1999.90;999.90;;;;;;;1.46;66.79;99400.53;5026271;27;100326;-69
2021/12/24 06:44:46;;;;;;;1999.90;999.90;;;;;;;1.46;67.08;99396.19;5018463;27;98242;-69
2021/12/24 06:47:14;;;;;;;1999.90;999.90;;;;;;;1.48;66.33;99389.28;5024178;27;97632;-69
2021/12/24 06:49:42;;;;;;;1999.90;999.90;;;;;;;1.47;66.38;99395.34;5017856;27;97248;-69
2021/12/24 06:52:09;;;;;;;1999.90;999.90;;;;;;;1.47;67.06;99397.09;5020718;27;98398;-69
2021/12/24 06:54:38;;;;;;;1999.90;999.90;;;;;;;1.49;67.06;99392.78;5007304;28;99251;-69
2021/12/24 06:57:15;;;;;;;1999.90;999.90;;;;;;;1.51;66.97;99393.72;5019289;27;97450;-69
2021/12/24 06:59:44;;;;;;;1999.90;999.90;;;;;;;1.52;66.48;99396.41;5022473;27;97072;-69
2021/12/24 07:02:12;;;;;;;1999.90;999.90;;;;;;;1.57;66.81;99396.56;5016901;27;98763;-69
2021/12/24 07:04:40;;;;;;;1999.90;999.90;;;;;;;1.59;66.92;99402.75;5003640;28;99263;-69
2021/12/24 07:07:10;;;;;;;1999.90;999.90;;;;;;;1.60;66.27;99397.56;5015722;27;97067;-69
2021/12/24 07:09:42;;;;;;;1999.90;999.90;;;;;;;1.60;67.33;99400.16;5021349;27;97352;-69
2021/12/24 07:12:11;;;;;;;1999.90;999.90;;;;;;;1.62;67.24;99398.50;5021480;27;100257;-69
2021/12/24 07:14:39;;;;;;;1999.90;999.90;;;;;;;1.62;66.05;99398.50;5021429;27;100318;-69
2021/12/24 07:17:08;;;;;;;1999.90;999.90;;;;;;;1.65;66.41;99398.59;5023079;27;96570;-72
2021/12/24 07:19:36;;;;;;;1999.90;999.90;;;;;;;1.66;66.50;99395.16;5018210;27;98869;-68
2021/12/24 07:22:04;;;;;;;1999.90;999.90;;;;;;;1.69;66.09;99402.25;5023059;27;98441;-69
2021/12/24 07:24:32;;;;;;;1999.90;999.90;;;;;;;1.72;66.34;99389.22;5010748;28;96791;-69
2021/12/24 07:27:02;;;;;;;1999.90;999.90;;;;;;;1.74;66.07;99392.78;5021856;27;99991;-69
2021/12/24 07:29:30;;;;;;;1999.90;999.90;;;;;;;1.74;66.35;99395.41;5010630;28;97180;-72
2021/12/24 07:31:58;;;;;;;1999.90;999.90;;;;;;;1.73;66.62;99405.00;5022540;27;97742;-69
2021/12/24 07:34:26;;;;;;;1999.90;999.90;;;;;;;1.74;66.35;99391.06;5011768;27;101280;-69
2021/12/24 07:36:54;;;;;;;1999.90;999.90;;;;;;;1.76;66.31;99396.38;5025128;27;98622;-68
2021/12/24 07:39:22;;;;;;;1999.90;999.90;;;;;;;1.75;66.72;99398.09;5007254;27;97339;-69
2021/12/24 07:41:50;;;;;;;1999.90;999.90;;;;;;;1.76;66.62;99396.38;5027238;27;96736;-69
2021/12/24 07:44:19;;;;;;;1999.90;999.90;;;;;;;1.76;67.05;99401.59;5026100;27;97074;-69
2021/12/24 07:46:56;;;;;;;1999.90;999.90;;;;;;;1.76;66.74;99404.22;5025970;27;96765;-68
2021/12/24 07:49:38;;;;;;;1999.90;999.90;;;;;;;1.75;66.97;99389.31;5020980;27;96910;-68
2021/12/24 07:52:12;;;;;;;1999.90;999.90;;;;;;;1.76;66.59;99389.38;5024732;27;98889;-68
2021/12/24 07:54:41;;;;;;;1999.90;999.90;;;;;;;1.77;66.68;99391.16;5027419;27;96868;-67
2021/12/24 07:57:11;;;;;;;1999.90;999.90;;;;;;;1.78;67.11;99390.31;5026674;27;96941;-68
2021/12/24 07:59:42;;;;;;;1999.90;999.90;;;;;;;1.80;66.89;99386.00;5024604;27;96803;-68
2021/12/24 08:02:14;;;;;;;1999.90;999.90;;;;;;;1.85;67.13;99375.69;5022931;27;99235;-69
2021/12/24 08:04:43;;;;;;;1999.90;999.90;;;;;;;1.87;67.45;99382.75;5022722;27;100641;-67
2021/12/24 08:07:11;;;;;;;1999.90;999.90;;;;;;;1.88;67.21;99381.94;5022949;27;97317;-70
2021/12/24 08:09:39;;;;;;;1999.90;999.90;;;;;;;1.93;67.47;99377.72;5025749;27;97015;-70
2021/12/24 08:12:10;;;;;;;1999.90;999.90;;;;;;;1.94;68.22;99368.13;5024124;27;97636;-67
2021/12/24 08:14:37;;;;;;;1999.90;999.90;;;;;;;2.01;66.85;99364.84;5010554;28;99124;-68
2021/12/24 08:17:07;;;;;;;1999.90;999.90;;;;;;;2.05;67.31;99367.59;5023120;27;97574;-68
2021/12/24 08:19:35;;;;;;;1999.90;999.90;;;;;;;2.09;67.44;99366.03;5022129;27;97177;-69
2021/12/24 08:22:03;;;;;;;1999.90;999.90;;;;;;;2.13;67.46;99357.41;5022122;27;97912;-69
2021/12/24 08:24:31;;;;;;;1999.90;999.90;;;;;;;2.16;67.46;99358.38;5026323;27;102735;-69
2021/12/24 08:26:59;;;;;;;1999.90;999.90;;;;;;;2.19;68.02;99357.59;5022573;27;97089;-69
2021/12/24 08:29:26;;;;;;;1999.90;999.90;;;;;;;2.20;67.66;99355.03;5029425;27;96861;-69
2021/12/24 08:31:54;;;;;;;1999.90;999.90;;;;;;;2.27;67.94;99350.88;5027288;27;97726;-69
2021/12/24 08:34:23;;;;;;;1999.90;999.90;;;;;;;2.28;67.82;99351.75;5028374;27;97569;-69
2021/12/24 08:36:52;;;;;;;1999.90;999.90;;;;;;;2.34;68.00;99349.31;5027050;27;96808;-69
2021/12/24 08:39:21;;;;;;;1999.90;999.90;;;;;;;2.37;67.21;99341.53;5026227;27;97277;-69
2021/12/24 08:41:54;;;;;;;1999.90;999.90;;;;;;;2.39;68.08;99350.34;5021341;27;100397;-69
2021/12/24 08:44:24;;;;;;;1999.90;999.90;;;;;;;2.43;67.04;99337.38;5023159;27;98687;-69
2021/12/24 08:46:52;;;;;;;1999.90;999.90;;;;;;;2.48;67.25;99348.00;5021758;27;96828;-69
2021/12/24 08:49:20;;;;;;;1999.90;999.90;;;;;;;2.49;67.08;99341.91;5021667;27;97002;-69
2021/12/24 08:51:50;;;;;;;1999.90;999.90;;;;;;;2.52;67.10;99336.75;5022245;27;96778;-70
2021/12/24 08:54:18;;;;;;;1999.90;999.90;;;;;;;2.54;67.52;99328.09;5029369;27;97769;-69
2021/12/24 08:56:51;;;;;;;1999.90;999.90;;;;;;;2.58;67.37;99342.19;5025373;27;96902;-69
2021/12/24 08:59:19;;;;;;;1999.90;999.90;;;;;;;2.60;67.16;99344.00;5024769;27;96962;-69
2021/12/24 09:01:47;;;;;;;1999.90;999.90;;;;;;;2.59;67.84;99334.34;5019218;27;99129;-73
2021/12/24 09:04:15;;;;;;;1999.90;999.90;;;;;;;2.63;67.45;99335.34;5026647;27;98803;-75
2021/12/24 09:06:43;;;;;;;1999.90;999.90;;;;;;;2.67;67.50;99337.22;5019713;27;97937;-70
2021/12/24 09:09:13;;;;;;;1999.90;999.90;;;;;;;2.67;67.36;99330.25;5029037;27;96774;-70
2021/12/24 09:11:42;;;;;;;1999.90;999.90;;;;;;;2.71;67.36;99342.59;5020669;27;97647;-70
2021/12/24 09:14:10;;;;;;;1999.90;999.90;;;;;;;2.73;66.74;99338.28;5025197;27;97812;-73
2021/12/24 09:16:39;;;;;;;1999.90;999.90;;;;;;;2.78;66.68;99338.41;5027586;27;96834;-71
2021/12/24 09:19:07;;;;;;;1999.90;999.90;;;;;;;2.80;66.70;99345.47;5025314;27;97192;-70
2021/12/24 09:21:37;;;;;;;1999.90;999.90;;;;;;;2.81;67.20;99354.25;5027842;27;97636;-70
2021/12/24 09:24:07;;;;;;;1999.90;999.90;;;;;;;2.82;66.72;99356.91;5023003;27;97908;-70
2021/12/24 09:26:36;;;;;;;1999.90;999.90;;;;;;;2.83;66.86;99352.56;5023354;27;96798;-71
2021/12/24 09:29:07;;;;;;;1999.90;999.90;;;;;;;2.85;66.84;99358.75;5022714;27;96628;-71
2021/12/24 09:31:35;;;;;;;1999.90;999.90;;;;;;;2.87;67.26;99355.34;5018875;27;99413;-70
2021/12/24 09:34:03;;;;;;;1999.90;999.90;;;;;;;2.87;67.33;99357.97;5021290;27;97297;-70
2021/12/24 09:36:31;;;;;;;1999.90;999.90;;;;;;;2.88;67.06;99340.44;5024864;27;96661;-69
2021/12/24 09:39:02;;;;;;;1999.90;999.90;;;;;;;2.88;67.25;99332.56;5029645;27;96735;-70
2021/12/24 09:41:29;;;;;;;1999.90;999.90;;;;;;;2.91;66.86;99358.94;5025555;27;98812;-69
2021/12/24 09:44:00;;;;;;;1999.90;999.90;;;;;;;2.92;67.11;99331.81;5015300;28;98040;-69
2021/12/24 09:46:29;;;;;;;1999.90;999.90;;;;;;;2.91;68.07;99333.53;5023862;27;97705;-70
2021/12/24 09:48:57;;;;;;;1999.90;999.90;;;;;;;2.91;67.94;99337.94;4999225;28;96828;-71
2021/12/24 09:51:27;;;;;;;1999.90;999.90;;;;;;;2.90;68.58;99323.00;4990675;28;100151;-71
2021/12/24 09:53:56;;;;;;;1999.90;999.90;;;;;;;2.94;67.86;99338.91;5010354;27;98934;-71
2021/12/24 09:56:24;;;;;;;1999.90;999.90;;;;;;;2.99;67.41;99333.75;5023675;27;97131;-71
2021/12/24 09:58:52;;;;;;;1999.90;999.90;;;;;;;3.00;67.39;99335.56;5024624;27;98658;-71
2021/12/24 10:01:31;;;;;;;1999.90;999.90;;;;;;;3.02;67.19;99337.38;5020491;27;98323;-71
2021/12/24 10:04:05;;;;;;;1999.90;999.90;;;;;;;3.01;67.75;99340.84;5023096;27;99886;-71
2021/12/24 10:06:32;;;;;;;1999.90;999.90;;;;;;;3.06;67.45;99325.19;5025982;27;97749;-70
2021/12/24 10:09:03;;;;;;;1999.90;999.90;;;;;;;3.07;66.94;99329.63;5026654;27;97978;-71
2021/12/24 10:11:46;;;;;;;1999.90;999.90;;;;;;;3.06;67.89;99330.47;5025159;27;97651;-71
2021/12/24 10:14:14;;;;;;;1999.90;999.90;;;;;;;3.06;67.96;99328.72;5027078;27;98817;-71
2021/12/24 10:16:45;;;;;;;1999.90;999.90;;;;;;;3.07;67.19;99329.63;5027170;27;96860;-71
2021/12/24 10:19:13;;;;;;;1999.90;999.90;;;;;;;3.07;67.85;99337.50;5028493;27;97495;-71
2021/12/24 10:21:41;;;;;;;1999.90;999.90;;;;;;;3.11;67.29;99342.88;5019194;27;97998;-71
2021/12/24 10:24:13;;;;;;;1999.90;999.90;;;;;;;3.11;67.09;99335.00;5019274;27;97610;-70
2021/12/24 10:26:46;;;;;;;1999.90;999.90;;;;;;;3.14;66.78;99324.59;5026294;27;96759;-71
2021/12/24 10:29:16;;;;;;;1999.90;999.90;;;;;;;3.15;66.97;99328.06;5025103;27;96726;-71
2021/12/24 10:31:49;;;;;;;1999.90;999.90;;;;;;;3.17;66.78;99321.13;5026576;27;98005;-71
2021/12/24 10:34:22;;;;;;;1999.90;999.90;;;;;;;3.20;66.93;99334.38;5010604;28;99764;-70
2021/12/24 10:37:05;;;;;;;1999.90;999.90;;;;;;;3.21;66.81;99323.00;5026713;27;97374;-70
2021/12/24 10:39:37;;;;;;;1999.90;999.90;;;;;;;3.25;66.86;99316.97;5026473;27;96850;-71
2021/12/24 10:42:08;;;;;;;1999.90;999.90;;;;;;;3.28;66.66;99324.94;5019036;27;97626;-71
2021/12/24 10:44:38;;;;;;;1999.90;999.90;;;;;;;3.30;66.28;99322.34;5022935;27;99195;-71
2021/12/24 10:47:12;;;;;;;1999.90;999.90;;;;;;;3.32;66.52;99336.41;5028489;27;97211;-70
2021/12/24 10:50:07;;;;;;;1999.90;999.90;;;;;;;3.32;66.51;99315.41;5018906;27;96888;-70
2021/12/24 10:52:57;;;;;;;1999.90;999.90;;;;;;;3.31;66.81;99314.53;5025723;27;97914;-71
2021/12/24 10:55:27;;;;;;;1999.90;999.90;;;;;;;3.28;66.99;99313.56;5024452;27;96780;-70
2021/12/24 10:57:56;;;;;;;1999.90;999.90;;;;;;;3.31;66.73;99319.78;5025587;27;97401;-70
2021/12/24 11:00:27;;;;;;;1999.90;999.90;;;;;;;3.34;66.49;99327.75;5023950;27;98878;-71
2021/12/24 11:02:58;;;;;;;1999.90;999.90;;;;;;;3.34;66.59;99301.44;5034355;27;100591;-71
2021/12/24 11:05:35;;;;;;;1999.90;999.90;;;;;;;3.33;66.64;99299.66;5001956;27;98984;-71
2021/12/24 11:08:05;;;;;;;1999.90;999.90;;;;;;;3.30;67.11;99315.34;5020939;27;96968;-70
2021/12/24 11:10:37;;;;;;;1999.90;999.90;;;;;;;3.33;66.57;99344.34;5025433;27;97088;-70
2021/12/24 11:13:09;;;;;;;1999.90;999.90;;;;;;;3.38;66.54;99299.78;5027058;27;99288;-71
2021/12/24 11:15:39;;;;;;;1999.90;999.90;;;;;;;3.40;65.96;99303.34;5019600;27;98895;-71
2021/12/24 11:18:14;;;;;;;1999.90;999.90;;;;;;;3.42;65.84;99302.56;5023208;27;96907;-71
2021/12/24 11:20:42;;;;;;;1999.90;999.90;;;;;;;3.46;66.07;99301.75;5021778;27;96908;-71
2021/12/24 11:23:11;;;;;;;1999.90;999.90;;;;;;;3.50;65.79;99301.00;5026038;28;98692;-71
2021/12/24 11:25:41;;;;;;;1999.90;999.90;;;;;;;3.56;65.44;99326.56;5022418;27;98689;-70
2021/12/24 11:28:09;;;;;;;1999.90;999.90;;;;;;;3.59;65.50;99345.94;5021171;27;97293;-71
2021/12/24 11:30:39;;;;;;;1999.90;999.90;;;;;;;3.64;65.32;99331.16;5026531;27;97126;-71
2021/12/24 11:33:13;;;;;;;1999.90;999.90;;;;;;;3.66;65.25;99313.72;5020871;27;98837;-71
2021/12/24 11:35:42;;;;;;;1999.90;999.90;;;;;;;3.74;65.21;99308.63;5023848;27;97204;-72
2021/12/24 11:38:14;;;;;;;1999.90;999.90;;;;;;;3.73;64.98;99315.63;5022102;27;97297;-70
2021/12/24 11:40:41;;;;;;;1999.90;999.90;;;;;;;3.80;64.92;99324.59;5024451;27;96775;-70
2021/12/24 11:43:14;;;;;;;1999.90;999.90;;;;;;;3.83;64.84;99307.13;5023494;27;98952;-71
2021/12/24 11:45:42;;;;;;;1999.90;999.90;;;;;;;3.85;64.69;99300.16;5021918;27;98790;-71
2021/12/24 11:48:12;;;;;;;1999.90;999.90;;;;;;;3.88;64.59;99310.75;5020433;27;96960;-70
2021/12/24 11:50:41;;;;;;;1999.90;999.90;;;;;;;3.92;64.58;99309.09;5009803;28;96863;-70
2021/12/24 11:53:10;;;;;;;1999.90;999.90;;;;;;;3.94;64.43;99308.28;5023011;27;97676;-71
2021/12/24 11:55:40;;;;;;;1999.90;999.90;;;;;;;3.95;64.59;99317.06;5028226;27;98716;-71
2021/12/24 11:58:10;;;;;;;1999.90;999.90;;;;;;;3.96;64.19;99310.94;5026521;27;97228;-70
2021/12/24 12:00:40;;;;;;;1999.90;999.90;;;;;;;3.97;64.14;99313.59;5024876;27;97385;-70
2021/12/24 12:03:10;;;;;;;1999.90;999.90;;;;;;;3.99;64.33;99297.84;5025476;27;100834;-71
2021/12/24 12:05:41;;;;;;;1999.90;999.90;;;;;;;4.00;64.15;99312.81;5026126;27;99313;-71
2021/12/24 12:08:33;;;;;;;1999.90;999.90;;;;;;;3.99;63.93;99343.47;5028850;27;96684;-70
2021/12/24 12:11:02;;;;;;;1999.90;999.90;;;;;;;3.99;64.01;99359.28;5020158;27;97127;-70
2021/12/24 12:13:38;;;;;;;1999.90;999.90;;;;;;;3.86;63.83;99361.59;5028362;27;98053;-70
2021/12/24 12:16:07;;;;;;;1999.90;999.90;;;;;;;3.80;63.99;99371.94;5024321;27;96819;-70
2021/12/24 12:18:43;;;;;;;1999.90;999.90;;;;;;;3.75;64.35;99360.41;5026174;27;96891;-70
2021/12/24 12:21:17;;;;;;;1999.90;999.90;;;;;;;3.70;64.40;99378.69;5021969;27;96849;-70
2021/12/24 12:24:04;;;;;;;1999.90;999.90;;;;;;;3.66;64.02;99403.13;5028040;27;96903;-70